• Join FlightAware (Why Join?)
  • Login
  • US Flag 
07:31AM EDT


 

Airport Tracker/Info


-or-


 

Live Flight TrackerFlight Track Log ✈ GJS6221 ✈ 01-Jun-2014 ✈ KLGA - KMKE

Flight Track Log - Related Links

Times and Time Zones

All times are in EDT time to prevent confusion due to time zone crossing. See the GJS6221 flight status page for this flight to view local times or setup timezone preferences in your user account.

Time Position Orientation Groundspeed Altitude Reporting Facility
EDT Latitude Longitude Course Direction KTS MPH feet Rate Location/Type
02:13PM 40.7500 -73.8333 90° East 164 189 1,900  Level New York TRACON
02:14PM 40.7500 -73.7833 90° East 226 260 4,300 2,220 Climbing New York TRACON
02:15PM 40.8000 -73.7667 14° North 257 296 6,400 1,860 Climbing New York TRACON
02:16PM 40.8500 -73.8500 308° West 283 326 8,100 1,140 Climbing New York TRACON
02:17PM 40.9000 -73.9333 308° West 283 326 8,700 1,500 Climbing New York TRACON
02:19PM 40.9775 -74.1600 294° West 328 377 13,000 1,980 Climbing New York Center
02:20PM 41.0136 -74.2828 291° West 350 403 15,000 1,980 Climbing New York Center
02:21PM 41.0478 -74.3917 293° West 355 409 16,900 1,440 Climbing New York Center
02:22PM 41.0892 -74.5372 291° West 366 421 18,000 540 Climbing New York Center
02:23PM 41.1269 -74.6522 294° West 379 436 18,000 60 Level New York Center
02:24PM 41.1767 -74.7844 297° West 369 425 18,200 780 Climbing New York Center
02:25PM 41.2211 -74.8864 300° West 369 425 19,700 1,620 Climbing New York Center
02:28PM 41.3861 -75.2725 301° West 385 443 24,700 1,560 Climbing New York Center
02:29PM 41.4417 -75.3981 301° West 385 443 25,900 1,020 Climbing New York Center
02:30PM 41.4886 -75.5314 295° West 390 449 26,800 840 Climbing New York Center
02:32PM 41.5744 -75.8206 292° West 416 479 28,500 720 Climbing New York Center
02:33PM 41.6178 -75.9764 290° West 431 496 29,100 540 Climbing New York Center
02:34PM 41.6608 -76.1297 291° West 442 509 29,600 540 Climbing New York Center
02:35PM 41.7056 -76.2889 291° West 447 514 30,200 720 Climbing New York Center
02:36PM 41.7503 -76.4483 291° West 452 520 31,100 1,020 Climbing New York Center
02:38PM 41.8125 -76.6722 291° West 451 519 32,900 1,080 Climbing Cleveland Center
02:39PM 41.8544 -76.8236 290° West 438 504 34,000 960 Climbing Cleveland Center
02:40PM 41.8950 -76.9731 290° West 429 494 35,000 1,020 Climbing Cleveland Center
02:41PM 41.9422 -77.1508 290° West 423 487 36,200 840 Climbing Cleveland Center
02:42PM 41.9814 -77.2997 290° West 423 487 36,800 480 Climbing Cleveland Center
02:43PM 42.0214 -77.4481 290° West 423 487 37,300 480 Climbing Cleveland Center
02:44PM 42.0622 -77.5967 290° West 423 487 37,800 300 Climbing Cleveland Center
02:45PM 42.1031 -77.7489 290° West 426 490 38,000 60 Climbing Cleveland Center
02:46PM 42.1447 -77.9014 290° West 427 491 38,000  Level Cleveland Center
02:47PM 42.1833 -78.0494 289° West 421 484 38,000  Level Cleveland Center
02:48PM 42.2306 -78.2250 290° West 416 479 38,000  Level Cleveland Center
02:49PM 42.2672 -78.3706 289° West 414 476 38,000  Level Cleveland Center
02:50PM 42.3044 -78.5203 289° West 414 476 38,000  Level Cleveland Center
02:51PM 42.3414 -78.6728 288° West 421 484 38,000  Level Cleveland Center
02:52PM 42.3792 -78.8256 289° West 426 490 38,000  Level Cleveland Center
02:53PM 42.4192 -78.9894 288° West 430 495 38,000  Level Cleveland Center
02:54PM 42.4617 -79.1625 288° West 430 495 38,000  Level Cleveland Center
02:55PM 42.4981 -79.3125 288° West 424 488 38,000  Level Cleveland Center
02:56PM 42.5347 -79.4647 288° West 424 488 38,000  Level Cleveland Center
02:57PM 42.5717 -79.6158 288° West 422 486 38,000  Level Cleveland Center
02:58PM 42.6069 -79.7661 288° West 422 486 38,000  Level Cleveland Center
02:59PM 42.6186 -79.9244 276° West 427 491 38,000  Level Cleveland Center
03:00PM 42.6258 -80.1000 273° West 424 488 38,000  Level Cleveland Center
03:01PM 42.6319 -80.2594 273° West 423 487 38,000  Level Cleveland Center
03:02PM 42.6389 -80.4186 273° West 423 487 38,000  Level Cleveland Center
03:03PM 42.6450 -80.6061 273° West 422 486 38,000  Level Cleveland Center
03:04PM 42.6519 -80.7675 273° West 423 487 38,000  Level Cleveland Center
03:05PM 42.6567 -80.9281 272° West 423 487 38,000  Level Cleveland Center
03:07PM 42.6611 -81.0864 272° West 422 486 38,000  Level Cleveland Center
03:08PM 42.6664 -81.2472 273° West 421 484 38,000  Level Cleveland Center
03:09PM 42.6831 -81.4044 278° West 421 484 38,000  Level Cleveland Center
03:10PM 42.7047 -81.5872 279° West 420 483 38,000  Level Cleveland Center
03:11PM 42.7225 -81.7475 279° West 420 483 38,000  Level Cleveland Center
03:12PM 42.7411 -81.9125 279° West 421 484 38,000  Level Cleveland Center
03:13PM 42.7586 -82.0725 279° West 427 491 38,000  Level Cleveland Center
03:14PM 42.7756 -82.2322 278° West 427 491 38,000  Level Cleveland Center
03:15PM 42.7936 -82.3933 279° West 430 495 38,000  Level Cleveland Center
03:16PM 42.8111 -82.5558 278° West 431 496 38,000  Level Cleveland Center
03:17PM 42.8319 -82.7175 280° West 433 498 38,000  Level Cleveland Center
03:18PM 42.8586 -82.9119 281° West 435 501 38,000  Level Cleveland Center
03:19PM 42.8808 -83.0725 281° West 435 501 38,000  Level Cleveland Center
03:20PM 42.9019 -83.2336 280° West 435 501 38,000  Level Cleveland Center
03:21PM 42.9217 -83.3922 280° West 432 497 38,000  Level Cleveland Center
03:22PM 42.9433 -83.5528 280° West 432 497 38,000  Level Cleveland Center
03:23PM 42.9678 -83.7444 280° West 432 497 38,000  Level Cleveland Center
03:24PM 42.9831 -83.9044 277° West 429 494 38,000  Level Cleveland Center
03:25PM 42.9986 -84.0653 278° West 429 494 38,000  Level Cleveland Center
03:26PM 43.0136 -84.2267 277° West 429 494 38,000  Level Cleveland Center
03:27PM 43.0314 -84.4131 277° West 429 494 38,000  Level Cleveland Center
03:28PM 43.0456 -84.5742 277° West 429 494 38,000  Level Cleveland Center
03:29PM 43.0594 -84.7339 277° West 429 494 38,000  Level Cleveland Center
03:30PM 43.0744 -84.8939 277° West 427 491 38,000  Level Cleveland Center
03:31PM 43.0883 -85.0500 277° West 417 480 38,000 -540 Level Cleveland Center
03:32PM 43.1036 -85.2381 276° West 416 479 37,000 -1,020 Descending Cleveland Center
03:33PM 43.1183 -85.3961 277° West 417 480 36,000 -1,020 Descending Cleveland Center
03:34PM 43.1306 -85.5569 276° West 423 487 35,000 -1,020 Descending Cleveland Center
03:35PM 43.1447 -85.7161 277° West 425 489 34,000 -1,140 Descending Cleveland Center
03:37PM 43.1581 -85.8736 277° West 425 489 32,700 -2,100 Descending Cleveland Center
03:38PM 43.1708 -86.0597 275° West 424 488 29,700 -2,760 Descending Cleveland Center
03:39PM 43.1675 -86.2133 268° West 417 480 27,100 -2,640 Descending Cleveland Center
03:40PM 43.1644 -86.4208 269° West 385 443 23,500 -2,580 Descending Chicago Center
03:41PM 43.1614 -86.5664 268° West 376 433 21,100 -2,280 Descending Chicago Center
03:42PM 43.1589 -86.7072 269° West 370 426 18,800 -2,280 Descending Chicago Center
03:43PM 43.1564 -86.8436 269° West 358 412 16,500 -2,280 Descending Chicago Center
03:44PM 43.1528 -86.9717 268° West 337 388 14,200 -1,500 Descending Chicago Center
03:45PM 43.1522 -87.1217 270° West 327 376 13,500 -1,500 Descending Chicago Center
03:46PM 43.1539 -87.2314 271° West 292 336 11,100 -2,520 Descending Chicago Center
03:47PM 43.1558 -87.3367 271° West 279 321 8,400 -2,040 Descending Chicago Center
03:48PM 43.1575 -87.4300 271° West 266 306 7,000 -780 Descending Chicago Center
03:49PM 43.1597 -87.5436 272° West 250 288 6,900 -720 Descending Chicago Center
03:50PM 43.1611 -87.6253 271° West 221 254 5,600 -1,320 Descending Chicago Center
03:51PM 43.1644 -87.7053 273° West 214 246 4,200 -780 Descending Chicago Center
03:52PM 43.1669 -87.7850 272° West 212 244 4,000 -540 Descending Chicago Center
03:53PM 43.1306 -87.8392 227° Southwest 203 234 3,200 -600 Descending Chicago Center
03:54PM 43.0836 -87.8711 206° Southwest 206 237 2,800 -540 Descending Chicago Center
03:55PM 43.0306 -87.8803 187° South 174 200 2,200 -600 Descending Chicago Center
03:56PM 42.9961 -87.8867 188° South 150 173 1,600 -600 Descending Chicago Center
04:00PM 42.9469 -87.8971 208° Southwest  Level Estimated